createdAt,value
2019-01-30T00:01:33.052Z,13.28
2019-01-30T00:04:02.326Z,12.55
2019-01-30T00:06:30.961Z,12.60
2019-01-30T00:08:59.729Z,11.67
2019-01-30T00:11:28.281Z,11.48
2019-01-30T00:13:56.930Z,12.75
2019-01-30T00:16:25.576Z,10.98
2019-01-30T00:18:54.138Z,12.00
2019-01-30T00:21:22.861Z,12.10
2019-01-30T00:23:51.350Z,11.40
2019-01-30T00:26:20.056Z,11.33
2019-01-30T00:28:48.592Z,11.27
2019-01-30T00:31:17.672Z,11.50
2019-01-30T00:33:46.158Z,10.37
2019-01-30T00:36:14.677Z,11.20
2019-01-30T00:38:43.118Z,11.53
2019-01-30T00:41:11.986Z,10.90
2019-01-30T00:43:40.594Z,10.03
2019-01-30T00:46:09.050Z,10.82
2019-01-30T00:48:37.763Z,10.57
2019-01-30T00:51:06.720Z,10.23
2019-01-30T00:53:35.322Z,9.23
2019-01-30T00:56:04.538Z,10.27
2019-01-30T00:58:33.248Z,9.77
2019-01-30T01:01:01.817Z,9.77
2019-01-30T01:03:30.574Z,10.00
2019-01-30T01:05:59.065Z,9.67
2019-01-30T01:08:27.781Z,9.77
2019-01-30T01:10:56.318Z,8.60
2019-01-30T01:13:25.102Z,9.00
2019-01-30T01:15:53.790Z,10.83
2019-01-30T01:18:22.459Z,10.28
2019-01-30T01:20:51.262Z,9.40
2019-01-30T01:23:20.561Z,9.90
2019-01-30T01:25:49.090Z,9.85
2019-01-30T01:28:18.094Z,9.40
2019-01-30T01:30:47.503Z,9.80
2019-01-30T01:33:17.234Z,10.35
2019-01-30T01:35:46.435Z,10.17
2019-01-30T01:38:14.904Z,10.72
2019-01-30T01:40:43.581Z,11.27
2019-01-30T01:43:12.386Z,10.27
2019-01-30T01:45:41.276Z,10.53
2019-01-30T01:48:09.941Z,9.60
2019-01-30T01:50:38.465Z,10.30
2019-01-30T01:53:07.710Z,11.03
2019-01-30T01:55:36.374Z,9.50
2019-01-30T01:58:05.101Z,10.33
2019-01-30T02:00:35.609Z,10.73
2019-01-30T02:03:04.401Z,10.47
2019-01-30T02:05:33.302Z,10.60
2019-01-30T02:08:02.083Z,11.33
2019-01-30T02:10:30.551Z,10.03
2019-01-30T02:12:58.960Z,11.10
2019-01-30T02:15:27.941Z,10.98
2019-01-30T02:17:56.589Z,10.65
2019-01-30T02:20:28.949Z,10.30
2019-01-30T02:22:57.690Z,10.93
2019-01-30T02:25:26.479Z,11.50
2019-01-30T02:27:54.994Z,10.40
2019-01-30T02:30:26.863Z,11.27
2019-01-30T02:32:55.524Z,10.43
2019-01-30T02:35:24.612Z,10.80
2019-01-30T02:37:53.450Z,11.87
2019-01-30T02:40:23.027Z,10.90
2019-01-30T02:42:51.803Z,10.13
2019-01-30T02:45:23.282Z,9.20
2019-01-30T02:47:52.219Z,10.60
2019-01-30T02:50:21.314Z,10.95
2019-01-30T02:52:50.566Z,10.33
2019-01-30T02:55:19.436Z,10.47
2019-01-30T02:57:48.199Z,10.63
2019-01-30T03:00:24.285Z,11.13
2019-01-30T03:02:53.044Z,9.43
2019-01-30T03:05:22.529Z,8.50
2019-01-30T03:07:51.145Z,10.17
2019-01-30T03:10:19.952Z,8.75
2019-01-30T03:12:48.562Z,8.93
2019-01-30T03:15:17.214Z,9.47
2019-01-30T03:17:46.480Z,10.33
2019-01-30T03:20:19.126Z,9.77
2019-01-30T03:22:47.720Z,9.57
2019-01-30T03:25:17.284Z,8.70
2019-01-30T03:27:46.348Z,8.80
2019-01-30T03:30:21.457Z,8.47
2019-01-30T03:32:50.169Z,8.37
2019-01-30T03:35:19.251Z,8.07
2019-01-30T03:37:47.954Z,9.03
2019-01-30T03:40:18.078Z,9.70
2019-01-30T03:42:46.854Z,9.00
2019-01-30T03:45:19.021Z,8.83
2019-01-30T03:47:47.778Z,10.10
2019-01-30T03:50:16.539Z,10.40
2019-01-30T03:52:45.023Z,9.83
2019-01-30T03:55:15.207Z,8.20
2019-01-30T03:57:43.946Z,8.63
2019-01-30T04:00:16.489Z,10.17
2019-01-30T04:02:45.291Z,8.90
2019-01-30T04:05:14.011Z,8.20
2019-01-30T04:07:42.486Z,8.90
2019-01-30T04:10:15.384Z,8.23
2019-01-30T04:12:44.165Z,7.17
2019-01-30T04:15:13.133Z,8.57
2019-01-30T04:17:41.607Z,9.27
2019-01-30T04:20:12.262Z,9.80
2019-01-30T04:22:40.938Z,9.90
2019-01-30T04:25:09.973Z,10.63
2019-01-30T04:27:38.705Z,9.15
2019-01-30T04:30:17.259Z,10.50
2019-01-30T04:32:45.736Z,10.80
2019-01-30T04:35:14.334Z,9.97
2019-01-30T04:37:42.901Z,9.80
2019-01-30T04:40:15.105Z,11.53
2019-01-30T04:42:43.770Z,10.23
2019-01-30T04:45:19.011Z,9.70
2019-01-30T04:47:47.752Z,9.23
2019-01-30T04:50:16.679Z,9.53
2019-01-30T04:52:45.175Z,9.33
2019-01-30T04:55:14.748Z,11.23
2019-01-30T04:57:43.242Z,10.97
2019-01-30T05:00:15.821Z,11.17
2019-01-30T05:02:44.484Z,8.37
2019-01-30T05:05:12.898Z,9.47
2019-01-30T05:07:41.472Z,8.50
2019-01-30T05:10:11.335Z,8.57
2019-01-30T05:12:39.997Z,8.97
2019-01-30T05:15:13.098Z,9.30
2019-01-30T05:17:41.658Z,9.33
2019-01-30T05:20:12.231Z,8.93
2019-01-30T05:22:40.687Z,8.73
2019-01-30T05:25:09.520Z,8.87
2019-01-30T05:27:38.161Z,10.00
2019-01-30T05:30:15.797Z,9.68
2019-01-30T05:32:46.001Z,10.00
2019-01-30T05:35:14.702Z,10.43
2019-01-30T05:37:43.732Z,10.87
2019-01-30T05:40:13.553Z,11.43
2019-01-30T05:42:42.625Z,10.98
2019-01-30T05:45:13.641Z,11.23
2019-01-30T05:47:42.492Z,12.18
2019-01-30T05:50:11.311Z,11.18
2019-01-30T05:52:40.019Z,11.47
2019-01-30T05:55:09.836Z,10.93
2019-01-30T05:57:38.536Z,11.83
2019-01-30T06:00:13.404Z,11.33
2019-01-30T06:02:41.979Z,11.10
2019-01-30T06:05:10.766Z,9.75
2019-01-30T06:07:39.749Z,10.63
2019-01-30T06:10:08.836Z,10.97
2019-01-30T06:12:37.520Z,8.60
2019-01-30T06:15:07.357Z,9.33
2019-01-30T06:17:35.878Z,9.73
2019-01-30T06:20:08.538Z,9.48
2019-01-30T06:22:37.286Z,9.80
2019-01-30T06:25:07.187Z,9.30
2019-01-30T06:27:35.606Z,10.60
2019-01-30T06:30:06.291Z,9.73
2019-01-30T06:32:34.915Z,10.43
2019-01-30T06:35:04.461Z,11.03
2019-01-30T06:37:33.286Z,11.50
2019-01-30T06:40:03.645Z,11.83
2019-01-30T06:42:32.139Z,10.40
2019-01-30T06:45:02.853Z,11.40
2019-01-30T06:47:32.213Z,10.90
2019-01-30T06:50:00.829Z,11.60
2019-01-30T06:52:29.517Z,10.83
2019-01-30T06:54:58.097Z,10.10
2019-01-30T06:57:26.710Z,10.53
2019-01-30T06:59:55.247Z,9.33
2019-01-30T07:02:32.177Z,9.27
2019-01-30T07:04:54.158Z,8.20
2019-01-30T07:07:22.770Z,8.63
2019-01-30T07:09:51.399Z,8.47
2019-01-30T07:12:19.792Z,8.77
2019-01-30T07:14:48.718Z,8.87
2019-01-30T07:17:17.307Z,9.33
2019-01-30T07:19:45.935Z,10.13
2019-01-30T07:22:14.551Z,8.70
2019-01-30T07:24:43.011Z,10.68
2019-01-30T07:27:11.623Z,11.33
2019-01-30T07:29:40.378Z,8.93
2019-01-30T07:32:09.079Z,10.77
2019-01-30T07:34:38.226Z,10.38
2019-01-30T07:37:06.833Z,10.23
2019-01-30T07:39:35.530Z,10.30
2019-01-30T07:42:04.263Z,11.37
2019-01-30T07:44:32.937Z,13.50
2019-01-30T07:47:01.561Z,11.73
2019-01-30T07:49:30.151Z,11.27
2019-01-30T07:51:58.666Z,9.93
2019-01-30T07:54:28.047Z,9.53
2019-01-30T07:56:56.853Z,12.50
2019-01-30T07:59:25.441Z,11.33
2019-01-30T08:01:54.067Z,9.90
2019-01-30T08:04:22.771Z,12.00
2019-01-30T08:06:51.472Z,12.07
2019-01-30T08:09:20.203Z,12.80
2019-01-30T08:11:48.793Z,11.50
2019-01-30T08:14:17.269Z,11.57
2019-01-30T08:16:47.955Z,11.27
2019-01-30T08:19:16.403Z,11.10
2019-01-30T08:21:45.187Z,13.13
2019-01-30T08:24:13.816Z,13.40
2019-01-30T08:26:42.658Z,12.57
2019-01-30T08:29:12.115Z,11.25
2019-01-30T08:31:41.064Z,12.20
2019-01-30T08:34:09.947Z,11.73
2019-01-30T08:36:38.548Z,12.20
2019-01-30T08:39:08.132Z,12.33
2019-01-30T08:41:36.676Z,11.57
2019-01-30T08:44:05.232Z,13.70
2019-01-30T08:46:33.831Z,13.97
2019-01-30T08:49:02.320Z,14.10
2019-01-30T08:51:30.703Z,11.63
2019-01-30T08:53:59.222Z,12.97
2019-01-30T08:56:27.910Z,12.93
2019-01-30T08:58:56.644Z,17.40
2019-01-30T09:01:25.236Z,13.17
2019-01-30T09:03:53.742Z,12.97
2019-01-30T09:06:22.424Z,11.10
2019-01-30T09:08:50.901Z,12.77
2019-01-30T09:11:20.139Z,12.00
2019-01-30T09:13:48.714Z,13.30
2019-01-30T09:16:17.625Z,11.17
2019-01-30T09:18:46.080Z,11.80
2019-01-30T09:21:15.277Z,12.23
2019-01-30T09:23:43.873Z,10.37
2019-01-30T09:26:12.504Z,11.97
2019-01-30T09:28:40.978Z,12.90
2019-01-30T09:31:09.501Z,11.00
2019-01-30T09:33:39.009Z,13.43
2019-01-30T09:36:07.686Z,11.50
2019-01-30T09:38:36.278Z,13.77
2019-01-30T09:41:05.010Z,12.53
2019-01-30T09:43:33.626Z,11.73
2019-01-30T09:46:02.526Z,11.83
2019-01-30T09:48:31.338Z,13.43
2019-01-30T09:51:00.686Z,10.23
2019-01-30T09:53:30.202Z,11.37
2019-01-30T09:55:58.795Z,11.47
2019-01-30T09:58:27.199Z,10.10
2019-01-30T10:00:55.877Z,10.30
2019-01-30T10:03:24.365Z,10.57
2019-01-30T10:05:53.265Z,11.00
2019-01-30T10:08:21.787Z,10.40
2019-01-30T10:10:50.875Z,11.33
2019-01-30T10:13:19.537Z,11.17
2019-01-30T10:15:48.119Z,10.97
2019-01-30T10:18:16.724Z,10.87
2019-01-30T10:20:47.042Z,11.00
2019-01-30T10:23:16.186Z,10.33
2019-01-30T10:25:44.821Z,12.20
2019-01-30T10:28:16.538Z,10.80
2019-01-30T10:30:45.383Z,12.33
2019-01-30T10:33:14.382Z,12.53
2019-01-30T10:35:43.426Z,15.23
2019-01-30T10:38:12.220Z,12.07
2019-01-30T10:40:40.808Z,16.30
2019-01-30T10:43:09.479Z,18.93
2019-01-30T10:45:38.488Z,13.33
2019-01-30T10:48:07.048Z,12.33
2019-01-30T10:50:35.620Z,13.63
2019-01-30T10:53:04.494Z,11.73
2019-01-30T10:55:33.894Z,11.40
2019-01-30T10:58:06.528Z,14.07
2019-01-30T11:00:47.703Z,13.33
2019-01-30T11:03:17.083Z,11.77
2019-01-30T11:05:45.868Z,12.77
2019-01-30T11:08:14.306Z,10.17
2019-01-30T11:10:42.989Z,10.90
2019-01-30T11:13:11.670Z,12.77
2019-01-30T11:15:40.265Z,12.30
2019-01-30T11:18:12.814Z,13.33
2019-01-30T11:20:41.638Z,10.40
2019-01-30T11:23:10.504Z,10.27
2019-01-30T11:25:41.663Z,12.07
2019-01-30T11:28:10.338Z,11.17
2019-01-30T11:30:39.268Z,9.63
2019-01-30T11:33:07.923Z,9.07
2019-01-30T11:35:37.355Z,10.30
2019-01-30T11:38:08.798Z,9.73
2019-01-30T11:40:36.611Z,10.33
2019-01-30T11:43:05.186Z,8.60
2019-01-30T11:45:37.283Z,9.63
2019-01-30T11:48:07.078Z,9.10
2019-01-30T11:50:36.325Z,9.10
2019-01-30T11:53:05.087Z,7.70
2019-01-30T11:55:33.916Z,8.60
2019-01-30T11:58:05.350Z,8.47
2019-01-30T12:00:48.719Z,9.77
2019-01-30T12:03:17.179Z,9.13
2019-01-30T12:05:47.032Z,9.13
2019-01-30T12:08:15.892Z,7.17
2019-01-30T12:10:44.548Z,8.17
2019-01-30T12:13:13.418Z,8.37
2019-01-30T12:15:41.948Z,7.33
2019-01-30T12:18:12.255Z,7.20
2019-01-30T12:20:40.826Z,7.43
2019-01-30T12:23:09.397Z,7.70
2019-01-30T12:25:37.970Z,8.37
2019-01-30T12:28:07.023Z,7.37
2019-01-30T12:30:35.906Z,8.17
2019-01-30T12:33:05.166Z,7.27
2019-01-30T12:35:33.784Z,7.13
2019-01-30T12:38:02.323Z,7.80
2019-01-30T12:40:31.098Z,7.53
2019-01-30T12:42:59.783Z,7.77
2019-01-30T12:45:33.442Z,7.33
2019-01-30T12:48:02.217Z,7.53
2019-01-30T12:50:31.048Z,8.10
2019-01-30T12:52:59.504Z,7.80
2019-01-30T12:55:29.490Z,7.80
2019-01-30T12:57:58.457Z,8.07
2019-01-30T13:00:31.496Z,7.60
2019-01-30T13:03:00.464Z,7.93
2019-01-30T13:05:30.157Z,6.93
2019-01-30T13:07:58.548Z,7.00
2019-01-30T13:10:27.500Z,6.87
2019-01-30T13:12:55.918Z,7.77
2019-01-30T13:15:25.909Z,7.40
2019-01-30T13:17:54.643Z,7.77
2019-01-30T13:20:24.187Z,7.03
2019-01-30T13:22:52.951Z,7.33
2019-01-30T13:25:29.306Z,7.43
2019-01-30T13:27:57.881Z,7.10
2019-01-30T13:30:30.448Z,6.07
2019-01-30T13:32:59.334Z,7.37
2019-01-30T13:35:28.145Z,7.33
2019-01-30T13:37:56.829Z,7.70
2019-01-30T13:40:37.416Z,12.03
2019-01-30T13:43:06.574Z,7.80
2019-01-30T13:45:35.012Z,9.20
2019-01-30T13:48:06.594Z,9.17
2019-01-30T13:50:36.837Z,10.17
2019-01-30T13:53:05.703Z,9.73
2019-01-30T13:55:34.371Z,11.43
2019-01-30T13:58:03.289Z,8.03
2019-01-30T14:00:34.475Z,7.40
2019-01-30T14:03:04.508Z,8.00
2019-01-30T14:05:33.506Z,8.50
2019-01-30T14:08:02.353Z,7.70
2019-01-30T14:10:31.671Z,10.20
2019-01-30T14:13:00.277Z,7.50
2019-01-30T14:15:29.814Z,13.93
2019-01-30T14:17:58.850Z,8.87
2019-01-30T14:20:27.529Z,9.80
2019-01-30T14:22:56.425Z,9.50
2019-01-30T14:25:25.125Z,8.83
2019-01-30T14:27:53.804Z,7.67
2019-01-30T14:30:31.386Z,8.80
2019-01-30T14:32:59.952Z,12.37
2019-01-30T14:35:31.762Z,8.03
2019-01-30T14:38:00.295Z,10.03
2019-01-30T14:40:29.104Z,15.60
2019-01-30T14:42:57.686Z,17.30
2019-01-30T14:45:28.074Z,20.77
2019-01-30T14:47:56.992Z,8.37
2019-01-30T14:50:26.051Z,10.60
2019-01-30T14:52:54.815Z,9.43
2019-01-30T14:55:23.551Z,14.93
2019-01-30T14:57:53.142Z,13.80
2019-01-30T15:00:26.020Z,14.50
2019-01-30T15:02:54.784Z,8.03
2019-01-30T15:05:24.917Z,7.47
2019-01-30T15:07:53.544Z,7.07
2019-01-30T15:10:22.480Z,7.90
2019-01-30T15:12:51.493Z,7.63
2019-01-30T15:15:23.459Z,7.33
2019-01-30T15:17:52.211Z,6.73
2019-01-30T15:20:26.853Z,6.47
2019-01-30T15:22:57.154Z,5.83
2019-01-30T15:25:26.681Z,6.57
2019-01-30T15:27:55.936Z,6.53
2019-01-30T15:30:46.244Z,5.50
2019-01-30T15:33:15.157Z,5.27
2019-01-30T15:35:43.846Z,5.80
2019-01-30T15:38:15.766Z,6.17
2019-01-30T15:40:44.510Z,5.43
2019-01-30T15:43:12.974Z,6.83
2019-01-30T15:45:41.459Z,7.13
2019-01-30T15:48:10.210Z,19.63
2019-01-30T15:50:40.375Z,10.07
2019-01-30T15:53:16.139Z,9.23
2019-01-30T15:55:44.702Z,15.43
2019-01-30T15:58:13.548Z,8.47
2019-01-30T16:01:05.734Z,17.77
2019-01-30T16:03:34.448Z,21.57
2019-01-30T16:06:03.444Z,15.27
2019-01-30T16:08:31.922Z,11.63
2019-01-30T16:11:00.772Z,12.43
2019-01-30T16:13:29.400Z,10.60
2019-01-30T16:16:01.591Z,9.67
2019-01-30T16:18:31.378Z,7.93
2019-01-30T16:21:00.452Z,8.50
2019-01-30T16:23:29.293Z,8.83
2019-01-30T16:25:57.949Z,10.10
2019-01-30T16:28:26.539Z,8.50
2019-01-30T16:30:55.189Z,10.10
2019-01-30T16:33:23.712Z,8.27
2019-01-30T16:35:56.146Z,8.87
2019-01-30T16:38:22.620Z,9.43
2019-01-30T16:40:51.171Z,9.30
2019-01-30T16:43:19.746Z,9.30
2019-01-30T16:45:48.203Z,9.83
2019-01-30T16:48:16.700Z,9.27
2019-01-30T16:50:45.236Z,8.90
2019-01-30T16:53:13.745Z,9.27
2019-01-30T16:55:42.293Z,9.50
2019-01-30T16:58:11.107Z,9.30
2019-01-30T17:00:39.623Z,10.03
2019-01-30T17:03:08.624Z,10.97
2019-01-30T17:05:36.991Z,11.27
2019-01-30T17:08:06.653Z,11.80
2019-01-30T17:10:35.362Z,10.83
2019-01-30T17:13:04.982Z,10.57
2019-01-30T17:15:33.662Z,10.60
2019-01-30T17:18:02.165Z,10.23
2019-01-30T17:20:35.769Z,11.80
2019-01-30T17:23:05.279Z,11.67
2019-01-30T17:25:34.722Z,12.67
2019-01-30T17:28:04.135Z,11.63
2019-01-30T17:30:46.763Z,13.23
2019-01-30T17:33:15.486Z,13.20
2019-01-30T17:35:44.190Z,11.17
2019-01-30T17:38:12.910Z,9.90
2019-01-30T17:40:42.363Z,9.97
2019-01-30T17:43:11.392Z,11.07
2019-01-30T17:45:39.938Z,10.70
2019-01-30T17:48:10.950Z,11.20
2019-01-30T17:50:39.755Z,12.37
2019-01-30T17:53:08.574Z,13.07
2019-01-30T17:55:38.047Z,12.57
2019-01-30T17:58:06.892Z,12.63
2019-01-30T18:00:50.881Z,13.33
2019-01-30T18:03:19.994Z,12.50
2019-01-30T18:05:48.589Z,11.70
2019-01-30T18:08:17.283Z,12.70
2019-01-30T18:10:46.267Z,12.37
2019-01-30T18:13:14.831Z,13.60
2019-01-30T18:15:43.502Z,14.47
2019-01-30T18:18:12.369Z,13.17
2019-01-30T18:20:41.247Z,13.00
2019-01-30T18:23:10.017Z,11.77
2019-01-30T18:25:38.641Z,14.03
2019-01-30T18:28:07.355Z,15.43
2019-01-30T18:30:36.182Z,12.37
2019-01-30T18:33:05.758Z,12.23
2019-01-30T18:35:34.757Z,12.87
2019-01-30T18:38:03.671Z,13.33
2019-01-30T18:40:32.336Z,14.00
2019-01-30T18:43:00.971Z,15.50
2019-01-30T18:45:29.511Z,15.37
2019-01-30T18:47:58.374Z,14.90
2019-01-30T18:50:27.461Z,15.77
2019-01-30T18:52:56.382Z,14.57
2019-01-30T18:55:25.048Z,12.90
2019-01-30T18:57:54.461Z,12.83
2019-01-30T19:00:36.333Z,13.20
2019-01-30T19:03:08.153Z,12.77
2019-01-30T19:05:36.820Z,13.13
2019-01-30T19:08:05.869Z,13.33
2019-01-30T19:10:34.511Z,13.63
2019-01-30T19:13:03.820Z,12.60
2019-01-30T19:15:33.960Z,13.33
2019-01-30T19:18:02.588Z,13.43
2019-01-30T19:20:37.929Z,16.17
2019-01-30T19:23:07.072Z,14.60
2019-01-30T19:25:36.017Z,15.57
2019-01-30T19:28:05.474Z,12.90
2019-01-30T19:30:34.127Z,13.53
2019-01-30T19:33:03.991Z,12.27
2019-01-30T19:35:32.443Z,13.03
2019-01-30T19:38:01.674Z,12.73
2019-01-30T19:40:30.551Z,12.90
2019-01-30T19:42:59.278Z,11.70
2019-01-30T19:45:28.250Z,11.77
2019-01-30T19:47:57.131Z,11.87
2019-01-30T19:50:28.482Z,12.40
2019-01-30T19:52:58.075Z,12.57
2019-01-30T19:55:27.372Z,12.47
2019-01-30T19:57:56.456Z,11.60
2019-01-30T20:00:32.174Z,13.97
2019-01-30T20:03:01.775Z,12.00
2019-01-30T20:05:30.423Z,12.23
2019-01-30T20:07:59.741Z,12.80
2019-01-30T20:10:31.978Z,12.00
2019-01-30T20:13:00.612Z,12.03
2019-01-30T20:15:30.414Z,11.20
2019-01-30T20:17:59.713Z,11.57
2019-01-30T20:20:28.434Z,12.77
2019-01-30T20:22:57.026Z,11.73
2019-01-30T20:25:29.322Z,13.37
2019-01-30T20:27:57.961Z,14.60
2019-01-30T20:30:26.991Z,12.70
2019-01-30T20:32:55.899Z,13.57
2019-01-30T20:35:25.166Z,13.83
2019-01-30T20:37:55.561Z,13.53
2019-01-30T20:40:26.951Z,15.53
2019-01-30T20:42:55.537Z,14.23
2019-01-30T20:45:33.377Z,14.73
2019-01-30T20:47:54.875Z,14.20
2019-01-30T20:50:26.182Z,14.53
2019-01-30T20:52:56.047Z,13.53
2019-01-30T20:55:25.247Z,13.10
2019-01-30T20:57:53.932Z,12.60
2019-01-30T21:00:26.179Z,13.07
2019-01-30T21:02:55.095Z,11.40
2019-01-30T21:05:24.593Z,12.17
2019-01-30T21:07:53.444Z,12.57
2019-01-30T21:10:34.971Z,12.80
2019-01-30T21:13:04.603Z,12.90
2019-01-30T21:15:33.116Z,12.40
2019-01-30T21:18:01.586Z,11.60
2019-01-30T21:20:30.559Z,11.80
2019-01-30T21:22:59.176Z,11.50
2019-01-30T21:25:28.099Z,11.67
2019-01-30T21:27:56.902Z,12.13
2019-01-30T21:30:29.148Z,11.20
2019-01-30T21:32:58.051Z,13.67
2019-01-30T21:35:26.715Z,13.77
2019-01-30T21:37:55.366Z,11.87
2019-01-30T21:40:23.872Z,12.57
2019-01-30T21:42:52.364Z,12.10
2019-01-30T21:45:22.665Z,12.50
2019-01-30T21:47:51.447Z,11.77
2019-01-30T21:50:20.620Z,12.13
2019-01-30T21:52:49.334Z,11.93
2019-01-30T21:55:20.677Z,13.53
2019-01-30T21:57:49.245Z,13.10
2019-01-30T22:00:24.677Z,14.53
2019-01-30T22:02:53.453Z,15.17
2019-01-30T22:05:22.423Z,14.73
2019-01-30T22:08:00.529Z,15.27
2019-01-30T22:10:25.319Z,14.33
2019-01-30T22:12:53.991Z,15.77
2019-01-30T22:15:23.287Z,14.53
2019-01-30T22:17:51.865Z,15.97
2019-01-30T22:20:23.268Z,16.17
2019-01-30T22:22:51.942Z,16.17
2019-01-30T22:25:22.240Z,16.23
2019-01-30T22:27:50.823Z,19.03
2019-01-30T22:30:22.640Z,18.43
2019-01-30T22:32:51.451Z,17.30
2019-01-30T22:35:20.375Z,17.97
2019-01-30T22:37:48.968Z,16.97
2019-01-30T22:40:17.488Z,17.47
2019-01-30T22:42:46.402Z,21.00
2019-01-30T22:45:16.973Z,19.57
2019-01-30T22:47:45.878Z,21.10
2019-01-30T22:50:16.536Z,21.17
2019-01-30T22:52:45.201Z,18.93
2019-01-30T22:55:16.708Z,20.53
2019-01-30T22:57:45.375Z,19.77
2019-01-30T23:13:08.068Z,18.83
2019-01-30T23:16:06.064Z,19.17
2019-01-30T23:19:32.106Z,18.57
2019-01-30T23:23:12.925Z,21.80
2019-01-30T23:26:12.047Z,19.17
2019-01-30T23:29:47.561Z,20.73
2019-01-30T23:32:48.264Z,21.17
2019-01-30T23:36:14.275Z,21.13
2019-01-30T23:39:55.133Z,19.80
2019-01-30T23:43:49.243Z,19.70
2019-01-30T23:46:58.592Z,20.57
2019-01-30T23:50:49.699Z,19.60
2019-01-30T23:54:17.458Z,18.27
2019-01-30T23:57:22.061Z,19.20
